Time;durP1;ratioP1;P1;durP2;ratioP2;P2;SDS_P1;SDS_P2;PMS_P1;PMS_P2;Temp;Humidity;BMP_temperature;BMP_pressure;BME280_temperature;BME280_humidity;BME280_pressure;Samples;Min_cycle;Max_cycle;Signal;HPM_P1;HPM_P2
2023/04/01 00:00:59;;;;;;;2.83;0.73;;;;;;;8.86;98.63;95035.84;5079007;28;20207;-66
2023/04/01 00:03:28;;;;;;;0.70;0.47;;;;;;;8.99;98.53;95035.09;5078594;28;20644;-67
2023/04/01 00:05:55;;;;;;;2.43;0.50;;;;;;;8.88;98.69;95025.94;5077888;28;20204;-66
2023/04/01 00:08:22;;;;;;;1.13;0.40;;;;;;;8.80;99.30;95030.56;5078648;28;20261;-66
2023/04/01 00:10:49;;;;;;;0.93;0.57;;;;;;;8.89;98.96;95027.56;5078609;28;20230;-66
2023/04/01 00:13:16;;;;;;;1.60;0.60;;;;;;;8.72;99.92;95028.91;5078275;28;20220;-66
2023/04/01 00:15:43;;;;;;;0.83;0.50;;;;;;;8.78;100.00;95019.44;5077631;28;20310;-66
2023/04/01 00:18:10;;;;;;;1.90;0.70;;;;;;;8.68;100.00;95022.44;5078584;28;20687;-67
2023/04/01 00:20:38;;;;;;;2.77;1.07;;;;;;;8.78;100.00;95022.88;5078343;28;20203;-66
2023/04/01 00:23:04;;;;;;;1.90;0.40;;;;;;;8.67;100.00;95023.44;5077822;28;20223;-66
2023/04/01 00:25:31;;;;;;;2.97;0.83;;;;;;;8.65;100.00;95028.06;5077712;28;20201;-66
2023/04/01 00:27:57;;;;;;;1.23;0.50;;;;;;;8.72;100.00;95018.41;5078959;28;20199;-66
2023/04/01 00:30:24;;;;;;;0.53;0.50;;;;;;;8.58;100.00;95023.78;5077994;28;20215;-66
2023/04/01 00:32:52;;;;;;;0.80;0.80;;;;;;;8.69;100.00;95025.84;5078311;28;20216;-67
2023/04/01 00:35:19;;;;;;;3.03;0.53;;;;;;;8.59;100.00;95041.97;5078078;28;21014;-67
2023/04/01 00:37:47;;;;;;;0.50;0.50;;;;;;;8.61;100.00;95037.31;5078233;28;20206;-66
2023/04/01 00:40:27;;;;;;;2.07;0.83;;;;;;;8.66;100.00;95034.94;5077534;28;20200;-66
2023/04/01 00:42:53;;;;;;;2.07;0.57;;;;;;;8.60;100.00;95027.03;5077643;28;20726;-66
2023/04/01 00:45:32;;;;;;;1.70;0.47;;;;;;;8.69;100.00;95024.06;5077968;28;20253;-67
2023/04/01 00:48:01;;;;;;;1.23;0.67;;;;;;;8.65;100.00;95025.44;5077916;28;20206;-67
2023/04/01 00:50:30;;;;;;;5.13;0.90;;;;;;;8.60;100.00;95019.97;5078095;28;20200;-67
2023/04/01 00:52:59;;;;;;;0.37;0.37;;;;;;;8.58;100.00;95016.72;5077867;28;20706;-66
2023/04/01 00:55:28;;;;;;;0.40;0.40;;;;;;;8.57;100.00;95014.28;5076601;28;20207;-66
2023/04/01 00:57:57;;;;;;;0.30;0.30;;;;;;;8.36;100.00;95016.97;5077822;28;20201;-66
2023/04/01 01:00:23;;;;;;;2.33;0.53;;;;;;;8.39;100.00;95010.53;5077744;28;20277;-66
2023/04/01 01:02:52;;;;;;;7.13;1.17;;;;;;;8.44;100.00;95022.09;5077218;28;20219;-65
2023/04/01 01:05:24;;;;;;;2.90;0.90;;;;;;;8.41;100.00;95013.78;5077309;28;20203;-66
2023/04/01 01:07:57;;;;;;;0.93;0.50;;;;;;;8.38;100.00;95003.69;5077650;28;20297;-67
2023/04/01 01:10:30;;;;;;;4.43;0.77;;;;;;;8.38;100.00;95009.75;5077475;28;20207;-66
2023/04/01 01:13:05;;;;;;;0.30;0.30;;;;;;;8.42;100.00;94999.66;5077328;28;20314;-66
2023/04/01 01:15:35;;;;;;;0.70;0.70;;;;;;;8.31;100.00;95001.03;5076236;28;20195;-66
2023/04/01 01:18:10;;;;;;;2.50;0.47;;;;;;;8.30;100.00;94990.69;5077706;28;20616;-66
2023/04/01 01:21:07;;;;;;;0.40;0.40;;;;;;;8.43;100.00;94993.44;5077241;28;20199;-66
2023/04/01 01:24:09;;;;;;;1.03;0.60;;;;;;;8.43;100.00;94996.84;5076677;28;20224;-66
2023/04/01 01:26:52;;;;;;;0.50;0.50;;;;;;;8.31;100.00;94994.94;5076967;28;20758;-66
2023/04/01 01:29:41;;;;;;;3.40;1.17;;;;;;;8.26;100.00;94998.16;5077012;28;20538;-66
2023/04/01 01:32:19;;;;;;;2.53;0.30;;;;;;;8.25;100.00;95004.41;5077117;28;20219;-66
2023/04/01 01:34:56;;;;;;;2.20;0.60;;;;;;;8.25;100.00;95008.84;5076546;28;20700;-66
2023/04/01 01:37:27;;;;;;;0.30;0.30;;;;;;;8.23;100.00;95008.22;5077267;28;20226;-66
2023/04/01 01:39:59;;;;;;;0.50;0.50;;;;;;;8.20;100.00;95000.75;5077204;28;20200;-66
2023/04/01 01:42:28;;;;;;;1.63;0.70;;;;;;;8.15;100.00;94997.91;5076610;28;20243;-66
2023/04/01 01:44:59;;;;;;;0.40;0.40;;;;;;;8.24;100.00;94988.88;5075659;28;21211;-66
2023/04/01 01:47:27;;;;;;;0.30;0.30;;;;;;;8.15;100.00;94984.78;5077852;28;20195;-66
2023/04/01 01:49:55;;;;;;;2.47;0.40;;;;;;;8.22;100.00;94988.25;5076703;28;20203;-66
2023/04/01 01:52:24;;;;;;;2.67;0.60;;;;;;;8.15;100.00;94992.66;5076328;28;20220;-66
2023/04/01 01:54:53;;;;;;;2.27;0.30;;;;;;;8.08;100.00;95007.47;5076348;28;20203;-66
2023/04/01 01:57:24;;;;;;;0.83;0.47;;;;;;;8.11;100.00;94986.94;5077153;28;20228;-66
2023/04/01 01:59:53;;;;;;;0.47;0.47;;;;;;;8.07;100.00;94998.81;5076897;28;20211;-66
2023/04/01 02:02:20;;;;;;;0.50;0.50;;;;;;;7.97;100.00;94994.91;5076730;28;20219;-66
2023/04/01 02:04:47;;;;;;;0.30;0.30;;;;;;;7.98;100.00;94994.72;5075948;28;20571;-66
2023/04/01 02:07:20;;;;;;;1.37;0.30;;;;;;;8.07;100.00;94980.44;5076293;28;20196;-66
2023/04/01 02:09:49;;;;;;;1.20;0.53;;;;;;;8.06;100.00;94988.53;5076419;28;20203;-66
2023/04/01 02:12:18;;;;;;;0.40;0.40;;;;;;;8.03;100.00;94992.34;5076355;28;20211;-66
2023/04/01 02:14:50;;;;;;;0.30;0.30;;;;;;;8.05;100.00;94989.50;5075702;28;20199;-66
2023/04/01 02:17:19;;;;;;;2.93;0.50;;;;;;;8.03;100.00;94991.50;5076533;28;20219;-67
2023/04/01 02:19:50;;;;;;;0.40;0.40;;;;;;;7.98;100.00;94992.09;5076181;28;20291;-67
2023/04/01 02:22:20;;;;;;;2.57;0.40;;;;;;;8.03;100.00;94999.38;5076326;28;20219;-65
2023/04/01 02:24:51;;;;;;;0.20;0.20;;;;;;;7.95;100.00;94996.91;5075603;28;20677;-67
2023/04/01 02:27:17;;;;;;;0.73;0.37;;;;;;;7.91;100.00;95003.53;5076287;28;20711;-65
2023/04/01 02:29:44;;;;;;;1.13;0.30;;;;;;;7.90;100.00;94999.28;5080795;28;20199;-67
2023/04/01 02:32:11;;;;;;;0.40;0.40;;;;;;;7.88;100.00;94996.84;5080860;28;20219;-66
2023/04/01 02:34:37;;;;;;;0.70;0.50;;;;;;;7.84;100.00;95007.94;5079378;28;20206;-66
2023/04/01 02:37:04;;;;;;;0.30;0.30;;;;;;;7.87;100.00;94999.69;5080362;28;20251;-67
2023/04/01 02:39:31;;;;;;;0.30;0.30;;;;;;;7.86;100.00;95005.91;5080449;28;20200;-66
2023/04/01 02:41:58;;;;;;;0.30;0.30;;;;;;;7.97;100.00;95005.41;5080409;28;20227;-67
2023/04/01 02:44:25;;;;;;;7.63;0.60;;;;;;;7.93;100.00;95010.22;5079609;28;20207;-67
2023/04/01 02:46:52;;;;;;;0.50;0.43;;;;;;;7.90;100.00;95005.34;5080772;28;20192;-67
2023/04/01 02:49:19;;;;;;;4.03;0.70;;;;;;;7.91;100.00;95011.41;5080460;28;20199;-67
2023/04/01 02:51:45;;;;;;;0.30;0.30;;;;;;;7.98;100.00;95013.06;5080184;28;20952;-67
2023/04/01 02:54:11;;;;;;;0.33;0.30;;;;;;;7.90;100.00;95023.72;5079248;28;20672;-66
2023/04/01 02:56:38;;;;;;;0.63;0.40;;;;;;;7.91;100.00;95012.19;5079953;28;20223;-67
2023/04/01 02:59:06;;;;;;;0.40;0.40;;;;;;;7.93;100.00;95014.66;5080002;28;20210;-66
2023/04/01 03:01:32;;;;;;;0.37;0.37;;;;;;;7.86;100.00;95021.66;5080384;28;20220;-66
2023/04/01 03:03:59;;;;;;;0.83;0.50;;;;;;;7.89;100.00;95027.34;5079412;28;20200;-66
2023/04/01 03:06:25;;;;;;;1.50;0.40;;;;;;;7.88;100.00;95027.53;5079312;28;20200;-66
2023/04/01 03:08:51;;;;;;;0.50;0.50;;;;;;;7.80;100.00;95035.50;5080034;28;20196;-67
2023/04/01 03:11:18;;;;;;;1.50;0.40;;;;;;;7.87;100.00;95036.38;5080347;28;20203;-67
2023/04/01 03:13:44;;;;;;;3.53;0.43;;;;;;;7.79;100.00;95036.53;5078868;28;20227;-67
2023/04/01 03:16:12;;;;;;;1.17;0.40;;;;;;;7.83;100.00;95040.41;5079412;28;20204;-66
2023/04/01 03:18:39;;;;;;;0.73;0.40;;;;;;;7.80;100.00;95035.50;5080001;28;20196;-67
2023/04/01 03:21:16;;;;;;;0.30;0.30;;;;;;;7.97;100.00;95032.44;5079793;28;20258;-67
2023/04/01 03:23:42;;;;;;;0.40;0.40;;;;;;;7.89;100.00;95037.00;5078697;28;20231;-66
2023/04/01 03:26:09;;;;;;;0.33;0.33;;;;;;;7.84;100.00;95031.53;5079284;28;20828;-67
2023/04/01 03:28:35;;;;;;;0.57;0.50;;;;;;;7.92;100.00;95020.91;5079673;28;20209;-67
2023/04/01 03:31:02;;;;;;;0.47;0.47;;;;;;;7.89;100.00;95034.38;5079472;28;20222;-67
2023/04/01 03:33:29;;;;;;;4.70;0.67;;;;;;;7.92;100.00;95045.31;5079404;28;20240;-67
2023/04/01 03:35:56;;;;;;;0.37;0.37;;;;;;;7.88;100.00;95043.25;5078937;28;20234;-66
2023/04/01 03:38:22;;;;;;;0.30;0.30;;;;;;;7.81;100.00;95047.63;5078219;28;20224;-66
2023/04/01 03:40:49;;;;;;;0.30;0.30;;;;;;;7.73;100.00;95050.38;5079837;28;20192;-66
2023/04/01 03:43:16;;;;;;;0.30;0.30;;;;;;;7.76;100.00;95050.00;5078743;28;20227;-67
2023/04/01 03:45:44;;;;;;;0.30;0.30;;;;;;;7.94;100.00;95038.06;5078471;28;20208;-67
2023/04/01 03:48:11;;;;;;;0.37;0.37;;;;;;;7.78;100.00;95048.00;5078559;28;21269;-66
2023/04/01 03:50:39;;;;;;;0.53;0.40;;;;;;;7.93;100.00;95046.13;5079166;28;20203;-66
2023/04/01 03:53:05;;;;;;;0.83;0.40;;;;;;;7.80;100.00;95045.19;5079013;28;20230;-66
2023/04/01 03:55:32;;;;;;;0.37;0.37;;;;;;;7.80;100.00;95047.81;5078308;28;20200;-66
2023/04/01 03:57:58;;;;;;;0.53;0.50;;;;;;;7.76;100.00;95047.38;5078966;28;20224;-67
2023/04/01 04:00:24;;;;;;;0.30;0.20;;;;;;;7.59;100.00;95040.78;5079381;28;20202;-67
2023/04/01 04:02:51;;;;;;;0.40;0.40;;;;;;;7.74;100.00;95038.91;5078619;28;20227;-66
2023/04/01 04:05:17;;;;;;;0.43;0.43;;;;;;;7.75;100.00;95044.94;5078093;28;21222;-66
2023/04/01 04:07:45;;;;;;;1.03;0.40;;;;;;;7.73;100.00;95044.34;5078828;28;20196;-67
2023/04/01 04:10:11;;;;;;;0.20;0.20;;;;;;;7.61;100.00;95046.66;5078238;28;20207;-66
2023/04/01 04:12:38;;;;;;;0.50;0.50;;;;;;;7.57;100.00;95040.13;5079060;28;20224;-66
2023/04/01 04:15:05;;;;;;;0.50;0.40;;;;;;;7.59;100.00;95043.41;5078342;28;20210;-67
2023/04/01 04:17:32;;;;;;;0.47;0.40;;;;;;;7.51;100.00;95037.47;5078275;28;20220;-66
2023/04/01 04:19:58;;;;;;;0.50;0.50;;;;;;;7.49;100.00;95026.38;5078348;28;20208;-67
2023/04/01 04:22:25;;;;;;;0.50;0.50;;;;;;;7.39;100.00;95041.59;5079896;28;20224;-67
2023/04/01 04:24:53;;;;;;;0.50;0.50;;;;;;;7.55;100.00;95039.53;5077417;28;20199;-66
2023/04/01 04:27:19;;;;;;;0.50;0.50;;;;;;;7.53;100.00;95041.50;5077594;28;20207;-66
2023/04/01 04:29:46;;;;;;;0.40;0.40;;;;;;;7.61;100.00;95051.06;5079014;28;20200;-66
2023/04/01 04:32:12;;;;;;;0.50;0.50;;;;;;;7.60;100.00;95037.16;5078377;28;20215;-66
2023/04/01 04:34:39;;;;;;;0.57;0.57;;;;;;;7.62;100.00;95032.53;5077187;28;20214;-67
2023/04/01 04:37:05;;;;;;;0.97;0.50;;;;;;;7.62;100.00;95037.75;5078371;28;20234;-67
2023/04/01 04:39:31;;;;;;;1.47;0.57;;;;;;;7.56;100.00;95040.34;5078016;28;20972;-66
2023/04/01 04:41:59;;;;;;;0.93;0.60;;;;;;;7.67;100.00;95039.84;5077602;28;20220;-67
2023/04/01 04:44:26;;;;;;;0.30;0.30;;;;;;;7.63;100.00;95036.78;5077716;28;20222;-66
2023/04/01 04:46:52;;;;;;;0.50;0.50;;;;;;;7.66;100.00;95028.56;5078088;28;20618;-67
2023/04/01 04:49:19;;;;;;;4.77;0.40;;;;;;;7.57;100.00;95031.47;5077299;28;20196;-66
2023/04/01 04:51:45;;;;;;;0.47;0.40;;;;;;;7.60;100.00;95031.91;5076579;28;20200;-66
2023/04/01 04:54:12;;;;;;;0.73;0.40;;;;;;;7.55;100.00;95031.66;5077361;28;20199;-67
2023/04/01 04:56:38;;;;;;;2.87;0.40;;;;;;;7.59;100.00;95032.91;5077769;28;20203;-66
2023/04/01 04:59:06;;;;;;;1.80;0.60;;;;;;;7.73;100.00;95039.09;5077809;28;20211;-66
2023/04/01 05:01:34;;;;;;;0.50;0.50;;;;;;;7.67;100.00;95024.91;5077744;28;20192;-66
2023/04/01 05:04:00;;;;;;;2.83;0.40;;;;;;;7.64;100.00;95027.91;5076899;28;20239;-66
2023/04/01 05:06:29;;;;;;;2.00;0.70;;;;;;;7.67;100.00;95035.41;5077605;28;21020;-67
2023/04/01 05:08:56;;;;;;;1.07;0.73;;;;;;;7.75;100.00;95037.09;5077148;28;20747;-64
2023/04/01 05:11:22;;;;;;;0.53;0.50;;;;;;;7.73;100.00;95033.84;5077249;28;20215;-67
2023/04/01 05:13:50;;;;;;;0.43;0.43;;;;;;;7.73;100.00;95034.66;5077078;28;20219;-68
2023/04/01 05:16:19;;;;;;;1.83;0.57;;;;;;;7.88;100.00;95032.78;5076847;28;20203;-67
2023/04/01 05:18:47;;;;;;;0.80;0.80;;;;;;;7.77;100.00;95025.41;5077476;28;20216;-66
2023/04/01 05:21:14;;;;;;;0.90;0.53;;;;;;;7.85;100.00;95033.13;5077627;28;20294;-68
2023/04/01 05:23:41;;;;;;;1.47;0.50;;;;;;;7.67;100.00;95029.34;5076703;28;20234;-71
2023/04/01 05:26:10;;;;;;;0.60;0.47;;;;;;;7.72;100.00;95033.03;5077207;28;20199;-68
2023/04/01 05:28:38;;;;;;;1.50;0.33;;;;;;;7.68;100.00;95031.78;5077144;28;20199;-66
2023/04/01 05:31:05;;;;;;;1.20;0.50;;;;;;;7.74;100.00;95035.44;5076939;28;20204;-70
2023/04/01 05:33:33;;;;;;;1.63;0.60;;;;;;;7.78;100.00;95034.06;5076834;28;20216;-69
2023/04/01 05:36:07;;;;;;;1.20;0.60;;;;;;;7.89;100.00;95039.63;5077662;28;20199;-71
2023/04/01 05:38:33;;;;;;;2.80;1.23;;;;;;;7.72;100.00;95040.88;5077285;28;20227;-66
2023/04/01 05:41:01;;;;;;;2.03;0.90;;;;;;;7.84;100.00;95041.19;5077041;28;20196;-66
2023/04/01 05:43:27;;;;;;;0.83;0.60;;;;;;;7.81;100.00;95028.47;5076612;28;20255;-67
2023/04/01 05:45:54;;;;;;;2.10;0.60;;;;;;;7.85;100.00;95038.38;5076688;28;20200;-67
2023/04/01 05:48:20;;;;;;;0.77;0.77;;;;;;;7.84;100.00;95038.56;5076878;28;20204;-69
2023/04/01 05:50:48;;;;;;;2.27;0.80;;;;;;;8.02;100.00;95032.69;5077037;28;20206;-67
2023/04/01 05:53:14;;;;;;;0.37;0.37;;;;;;;8.02;100.00;95037.13;5076594;28;20224;-66
2023/04/01 05:55:41;;;;;;;0.47;0.47;;;;;;;8.05;100.00;95034.91;5076296;28;20200;-66
2023/04/01 05:58:07;;;;;;;0.57;0.40;;;;;;;8.12;100.00;95034.94;5076578;28;20216;-65
2023/04/01 06:00:34;;;;;;;1.67;0.60;;;;;;;8.15;100.00;95032.00;5077063;28;20200;-67
2023/04/01 06:03:00;;;;;;;2.53;0.77;;;;;;;8.11;100.00;95033.34;5076658;28;20667;-68
2023/04/01 06:05:30;;;;;;;0.60;0.60;;;;;;;8.23;100.00;95021.34;5075809;28;20544;-69
2023/04/01 06:07:59;;;;;;;5.73;1.60;;;;;;;8.31;100.00;95029.91;5076299;28;20204;-67
2023/04/01 06:10:39;;;;;;;6.10;1.00;;;;;;;8.39;100.00;95023.66;5076683;28;20579;-68
2023/04/01 06:13:13;;;;;;;1.57;0.57;;;;;;;8.31;100.00;95024.66;5076375;28;20221;-70
2023/04/01 06:15:48;;;;;;;3.37;1.20;;;;;;;8.44;100.00;95034.41;5075934;28;20199;-67
2023/04/01 06:18:53;;;;;;;3.33;0.80;;;;;;;8.48;100.00;95030.38;5076510;28;20226;-70
2023/04/01 06:21:57;;;;;;;1.80;0.70;;;;;;;8.56;100.00;95023.97;5076909;28;20218;-67
2023/04/01 06:24:45;;;;;;;3.20;0.90;;;;;;;8.66;100.00;95024.44;4993513;28;20206;-66
2023/04/01 06:27:21;;;;;;;3.10;0.87;;;;;;;8.74;100.00;95029.50;5067568;28;21010;-68
2023/04/01 06:30:03;;;;;;;3.20;1.17;;;;;;;8.83;99.68;95030.97;5076261;28;20203;-67
2023/04/01 06:32:49;;;;;;;0.70;0.63;;;;;;;8.85;99.32;95034.22;5076099;28;20234;-67
2023/04/01 06:35:27;;;;;;;5.50;1.07;;;;;;;8.86;98.84;95033.22;5075755;28;20214;-69
2023/04/01 06:38:16;;;;;;;0.50;0.47;;;;;;;8.89;98.42;95026.78;5075938;28;20220;-67
2023/04/01 06:41:07;;;;;;;2.37;0.60;;;;;;;9.05;97.53;95032.50;5076530;28;20202;-67
2023/04/01 06:43:43;;;;;;;2.50;0.50;;;;;;;8.97;95.92;95037.91;5076413;28;20219;-67
2023/04/01 06:46:19;;;;;;;0.40;0.33;;;;;;;9.04;96.44;95037.94;5075902;28;20207;-68
2023/04/01 06:49:02;;;;;;;4.53;1.10;;;;;;;9.14;95.67;95041.81;5076004;28;20295;-67
2023/04/01 06:51:39;;;;;;;0.23;0.20;;;;;;;9.02;93.89;95037.31;5076503;28;20250;-68
2023/04/01 06:54:12;;;;;;;0.30;0.30;;;;;;;9.27;93.48;95036.59;5075409;28;21028;-67
2023/04/01 06:56:43;;;;;;;2.20;0.50;;;;;;;9.38;93.23;95042.09;5075437;28;20215;-67
2023/04/01 06:59:16;;;;;;;0.97;0.60;;;;;;;9.38;91.74;95041.28;5075749;28;20223;-67
2023/04/01 07:01:47;;;;;;;13.60;2.17;;;;;;;9.53;91.39;95044.56;5076399;28;20214;-67
2023/04/01 07:04:19;;;;;;;1.90;0.40;;;;;;;9.37;89.97;95040.47;5075271;28;20203;-68
2023/04/01 07:06:51;;;;;;;2.33;0.40;;;;;;;9.35;91.12;95039.84;5075993;28;20200;-68
2023/04/01 07:09:20;;;;;;;2.70;0.70;;;;;;;9.40;89.63;95034.00;5075813;28;20203;-67
2023/04/01 07:11:48;;;;;;;2.77;0.60;;;;;;;9.46;90.51;95046.38;5076074;28;20200;-67
2023/04/01 07:14:20;;;;;;;0.27;0.27;;;;;;;9.63;89.28;95029.22;5077411;28;20314;-67
2023/04/01 07:16:50;;;;;;;6.73;1.20;;;;;;;9.71;89.80;95029.81;5079889;28;20196;-68
2023/04/01 07:19:22;;;;;;;1.67;0.40;;;;;;;9.75;89.02;95029.22;5079088;28;21094;-67
2023/04/01 07:21:52;;;;;;;8.37;2.80;;;;;;;9.71;88.81;95035.06;5079485;28;20290;-67
2023/04/01 07:24:24;;;;;;;2.07;0.43;;;;;;;9.64;87.94;95031.63;5078873;28;20211;-67
2023/04/01 07:26:55;;;;;;;6.07;1.90;;;;;;;9.60;88.80;95032.22;5079596;28;20200;-67
2023/04/01 07:29:21;;;;;;;0.50;0.50;;;;;;;9.58;89.19;95031.63;5079204;28;20786;-67
2023/04/01 08:20:24;;;;;;;0.40;0.40;;;;;;;9.81;89.27;95032.84;4991183;28;20526;-68
2023/04/01 08:22:57;;;;;;;0.50;0.50;;;;;;;9.71;89.41;95011.38;4990565;28;20473;-68
2023/04/01 08:25:26;;;;;;;0.40;0.33;;;;;;;9.85;88.71;95018.28;4989548;28;20213;-68
2023/04/01 08:27:57;;;;;;;0.30;0.30;;;;;;;9.94;88.69;95012.63;4989842;28;20203;-68
2023/04/01 08:30:26;;;;;;;0.53;0.53;;;;;;;10.00;89.93;95003.94;4990404;28;20579;-68
2023/04/01 08:32:57;;;;;;;0.40;0.40;;;;;;;10.01;90.65;95013.47;4990955;28;20230;-67
2023/04/01 08:35:30;;;;;;;0.97;0.70;;;;;;;10.15;89.37;95017.72;4990414;28;20214;-68
2023/04/01 08:38:02;;;;;;;0.57;0.50;;;;;;;10.26;89.42;95017.09;4990909;28;20226;-68
2023/04/01 08:40:48;;;;;;;0.43;0.40;;;;;;;10.21;88.05;94995.84;4990312;28;20206;-68
2023/04/01 08:43:25;;;;;;;1.47;0.70;;;;;;;10.16;87.50;94995.66;4990300;28;20638;-68
2023/04/01 08:46:14;;;;;;;8.77;0.87;;;;;;;10.30;86.93;95005.16;4990007;28;20222;-67
2023/04/01 08:48:52;;;;;;;1.03;0.50;;;;;;;10.45;85.84;95000.44;4990856;28;20546;-68
2023/04/01 08:52:02;;;;;;;0.20;0.20;;;;;;;10.36;85.82;94997.25;4990478;28;20229;-67
2023/04/01 08:54:46;;;;;;;2.10;0.83;;;;;;;10.43;86.08;95002.50;4989486;28;21266;-68
2023/04/01 08:57:22;;;;;;;0.40;0.40;;;;;;;10.39;86.40;95004.72;4990894;28;20704;-67
2023/04/01 09:00:03;;;;;;;0.50;0.50;;;;;;;10.54;87.75;95002.66;4989928;28;20209;-67
2023/04/01 09:03:12;;;;;;;0.40;0.40;;;;;;;10.59;87.63;94997.59;4990189;28;21127;-68
2023/04/01 09:06:27;;;;;;;1.43;0.60;;;;;;;10.75;88.55;95004.25;4982662;28;20659;-67
2023/04/01 09:09:11;;;;;;;2.30;0.60;;;;;;;10.47;87.43;95024.75;4930890;28;20224;-68
2023/04/01 09:12:03;;;;;;;0.70;0.50;;;;;;;10.22;88.97;95022.97;4990087;28;20297;-68
2023/04/01 09:14:49;;;;;;;0.40;0.40;;;;;;;10.25;88.99;95012.84;4989890;28;20202;-67
2023/04/01 09:17:44;;;;;;;0.97;0.30;;;;;;;10.15;90.27;95022.19;4990095;28;20210;-68
2023/04/01 09:20:25;;;;;;;0.30;0.30;;;;;;;10.06;91.55;95023.41;4989605;28;20286;-68
2023/04/01 09:23:11;;;;;;;0.90;0.60;;;;;;;9.97;92.15;95019.34;4989695;28;20368;-67
2023/04/01 09:25:59;;;;;;;0.43;0.43;;;;;;;9.94;93.09;95012.63;4988884;28;20203;-67
2023/04/01 09:28:28;;;;;;;0.40;0.40;;;;;;;9.89;92.92;95015.06;4989925;28;20230;-66
2023/04/01 09:31:11;;;;;;;0.40;0.40;;;;;;;9.89;92.18;95020.31;4980703;28;20563;-66
2023/04/01 09:33:52;;;;;;;0.63;0.50;;;;;;;9.72;94.05;95024.38;4975985;28;20734;-68
2023/04/01 09:36:39;;;;;;;4.00;0.40;;;;;;;9.76;93.58;95030.84;4978081;28;20211;-68
2023/04/01 09:39:26;;;;;;;0.73;0.60;;;;;;;9.77;95.47;95026.38;4977044;28;20218;-68
2023/04/01 09:42:07;;;;;;;0.30;0.30;;;;;;;9.66;96.40;95026.16;4976560;28;20745;-68
2023/04/01 09:44:36;;;;;;;3.13;0.60;;;;;;;9.55;97.07;95016.25;4975862;28;21031;-68
2023/04/01 09:47:23;;;;;;;1.47;0.90;;;;;;;9.63;98.36;95023.94;4976939;28;20268;-68
2023/04/01 09:50:01;;;;;;;1.17;0.73;;;;;;;9.55;100.00;95024.16;4976483;28;20223;-69
2023/04/01 09:52:39;;;;;;;1.80;0.60;;;;;;;9.48;98.43;95025.94;4976912;28;20306;-67
2023/04/01 09:55:22;;;;;;;2.97;1.03;;;;;;;9.46;97.56;95028.78;4976011;28;20987;-68
2023/04/01 09:58:34;;;;;;;1.43;0.60;;;;;;;9.48;96.50;95029.41;4976258;28;20203;-68
2023/04/01 10:01:32;;;;;;;0.60;0.50;;;;;;;9.53;97.67;95020.88;4976812;28;20693;-68
2023/04/01 10:04:25;;;;;;;1.00;0.60;;;;;;;9.55;97.77;95017.06;4976053;28;20261;-68
2023/04/01 10:07:38;;;;;;;1.60;0.70;;;;;;;9.63;98.46;95029.22;4976512;28;20260;-69
2023/04/01 10:10:55;;;;;;;0.90;0.50;;;;;;;9.70;99.51;95030.84;4977799;28;20258;-68
2023/04/01 10:13:54;;;;;;;0.97;0.53;;;;;;;9.71;97.79;95043.78;4952696;28;20227;-69
2023/04/01 10:16:38;;;;;;;0.43;0.43;;;;;;;9.63;96.41;95039.72;4976196;28;20211;-69
2023/04/01 10:19:23;;;;;;;0.40;0.40;;;;;;;9.64;97.62;95043.97;4976614;28;20211;-68
2023/04/01 10:22:11;;;;;;;0.40;0.40;;;;;;;9.54;95.72;95033.03;4976255;28;20671;-68
2023/04/01 10:25:00;;;;;;;0.87;0.60;;;;;;;9.62;95.70;95024.94;4975627;28;20203;-68
2023/04/01 10:27:44;;;;;;;0.30;0.30;;;;;;;9.35;95.00;95034.59;4975926;28;20207;-68
2023/04/01 10:30:53;;;;;;;0.40;0.40;;;;;;;9.55;96.23;95043.34;4975888;28;20227;-69
2023/04/01 10:33:47;;;;;;;2.53;0.60;;;;;;;9.54;95.33;95030.41;4975960;28;20233;-68
2023/04/01 10:36:42;;;;;;;0.60;0.50;;;;;;;9.43;95.30;95042.31;4975871;28;20584;-68
2023/04/01 10:39:34;;;;;;;0.60;0.60;;;;;;;9.49;93.61;95032.81;4976039;28;20210;-68
2023/04/01 10:42:51;;;;;;;0.63;0.43;;;;;;;9.52;92.25;95038.50;4974645;28;20942;-68
2023/04/01 10:46:00;;;;;;;0.30;0.30;;;;;;;9.62;93.35;95028.38;4944477;28;21113;-68
2023/04/01 10:48:54;;;;;;;0.40;0.40;;;;;;;9.54;92.12;95025.16;4975279;28;20234;-69
2023/04/01 10:51:59;;;;;;;0.73;0.43;;;;;;;9.69;92.04;95035.28;4943228;28;20694;-69
2023/04/01 10:54:44;;;;;;;0.30;0.30;;;;;;;9.81;91.06;95023.16;4974660;28;20215;-69
2023/04/01 10:57:29;;;;;;;0.63;0.40;;;;;;;9.99;92.42;95026.03;4975946;28;20211;-68
2023/04/01 11:00:19;;;;;;;0.83;0.40;;;;;;;9.97;93.51;95022.78;4975691;28;20659;-68
2023/04/01 11:03:22;;;;;;;0.60;0.40;;;;;;;9.93;91.15;95026.00;4975577;28;20223;-68
2023/04/01 11:06:24;;;;;;;0.30;0.30;;;;;;;9.85;93.41;95032.28;4974915;28;20206;-69
2023/04/01 11:09:20;;;;;;;0.73;0.60;;;;;;;9.73;95.85;95035.69;4975912;28;20233;-68
2023/04/01 11:12:32;;;;;;;0.47;0.43;;;;;;;9.76;95.26;95036.09;4975382;28;20211;-69
2023/04/01 11:15:47;;;;;;;0.30;0.30;;;;;;;9.76;95.20;95038.75;4975250;28;20238;-69
2023/04/01 11:18:48;;;;;;;0.70;0.63;;;;;;;9.81;97.06;95035.50;4934060;28;20216;-68
2023/04/01 11:21:53;;;;;;;0.80;0.50;;;;;;;9.83;93.51;95046.63;4974613;28;20579;-69
2023/04/01 11:24:39;;;;;;;1.40;0.80;;;;;;;9.79;93.60;95035.69;4918794;28;20204;-69
2023/04/01 11:27:21;;;;;;;0.80;0.80;;;;;;;9.90;93.53;95037.75;4971650;28;20214;-69
2023/04/01 11:30:03;;;;;;;0.40;0.40;;;;;;;9.76;94.32;95038.75;4975206;28;20226;-69
2023/04/01 11:32:41;;;;;;;1.67;0.60;;;;;;;9.82;95.95;95040.53;4975351;28;20231;-68
2023/04/01 11:35:27;;;;;;;0.40;0.40;;;;;;;9.78;96.17;95044.59;4974463;28;20451;-68
2023/04/01 11:38:03;;;;;;;0.63;0.47;;;;;;;9.83;96.68;95054.53;4975439;28;20207;-68
2023/04/01 11:40:41;;;;;;;0.47;0.40;;;;;;;9.82;98.14;95055.53;4975352;28;20213;-69
2023/04/01 11:43:17;;;;;;;0.40;0.40;;;;;;;9.75;98.08;95050.25;4974515;28;20235;-69
2023/04/01 11:45:50;;;;;;;0.43;0.40;;;;;;;9.68;98.90;95053.09;4973999;28;20218;-70
2023/04/01 11:48:41;;;;;;;0.40;0.40;;;;;;;9.85;100.00;95058.56;4975122;28;20214;-68
2023/04/01 11:51:29;;;;;;;0.40;0.40;;;;;;;9.62;100.00;95053.88;4974965;28;20661;-69
2023/04/01 11:54:05;;;;;;;0.30;0.30;;;;;;;9.50;100.00;95072.06;4973820;28;20227;-68
2023/04/01 11:56:53;;;;;;;0.60;0.40;;;;;;;9.68;100.00;95065.22;4974873;28;20278;-69
2023/04/01 11:59:52;;;;;;;0.50;0.50;;;;;;;9.49;100.00;95065.16;4974643;28;20199;-69
2023/04/01 12:02:26;;;;;;;2.63;0.90;;;;;;;9.39;100.00;95074.44;4970836;28;20280;-70
2023/04/01 12:05:02;;;;;;;1.57;0.70;;;;;;;9.40;100.00;95060.31;4974085;28;20222;-69
2023/04/01 12:07:46;;;;;;;0.50;0.50;;;;;;;9.38;100.00;95057.03;4974737;28;20328;-68
2023/04/01 12:10:19;;;;;;;0.63;0.63;;;;;;;9.39;100.00;95059.47;4974604;28;20222;-69
2023/04/01 12:13:00;;;;;;;0.40;0.40;;;;;;;9.45;100.00;95068.41;4974816;28;20226;-69
2023/04/01 12:15:36;;;;;;;2.60;0.60;;;;;;;9.46;100.00;95049.81;4973769;28;20285;-69
2023/04/01 12:18:15;;;;;;;0.90;0.80;;;;;;;9.51;100.00;95063.16;4974897;28;20309;-69
2023/04/01 12:20:51;;;;;;;2.90;0.87;;;;;;;9.73;100.00;95054.91;4974653;28;20572;-68
2023/04/01 12:23:51;;;;;;;1.07;0.67;;;;;;;9.93;100.00;95058.38;4974114;28;20238;-69
2023/04/01 12:26:36;;;;;;;0.40;0.40;;;;;;;9.70;99.36;95057.94;4975105;28;20214;-69
2023/04/01 12:29:32;;;;;;;0.67;0.40;;;;;;;9.79;97.80;95061.19;4974186;28;20222;-69
2023/04/01 12:32:10;;;;;;;0.40;0.40;;;;;;;9.86;97.48;95051.47;4973823;28;20235;-70
2023/04/01 12:35:10;;;;;;;0.40;0.40;;;;;;;9.91;97.98;95064.84;4974273;28;20226;-69
2023/04/01 12:37:47;;;;;;;0.47;0.47;;;;;;;10.20;98.20;95060.03;4974314;28;20210;-69
2023/04/01 12:40:29;;;;;;;0.37;0.37;;;;;;;10.31;97.13;95062.06;4973961;28;20258;-68
2023/04/01 12:43:06;;;;;;;0.60;0.40;;;;;;;10.25;96.65;95056.81;4974179;28;20223;-68
2023/04/01 12:45:35;;;;;;;0.50;0.50;;;;;;;10.25;97.37;95054.97;4973523;28;20203;-68
2023/04/01 12:48:32;;;;;;;0.60;0.50;;;;;;;10.42;96.17;95062.25;4974027;28;20560;-68
2023/04/01 12:51:27;;;;;;;1.00;0.70;;;;;;;10.37;97.01;95066.50;4974234;28;20231;-68
2023/04/01 12:54:25;;;;;;;3.37;1.37;;;;;;;10.49;97.08;95063.06;4973180;28;20604;-68
2023/04/01 12:57:04;;;;;;;0.80;0.60;;;;;;;10.42;96.71;95059.63;4974036;28;20215;-69
2023/04/01 12:59:51;;;;;;;0.60;0.60;;;;;;;10.52;95.61;95059.19;4974282;28;20671;-68
2023/04/01 13:02:32;;;;;;;0.30;0.30;;;;;;;10.60;95.31;95058.97;4973792;28;20810;-68
2023/04/01 13:05:32;;;;;;;0.40;0.40;;;;;;;10.62;94.06;95064.88;4973758;28;20298;-68
2023/04/01 13:08:09;;;;;;;0.33;0.33;;;;;;;10.71;95.11;95053.09;4977222;28;20218;-68